| time (UTC) | temp F | wind direction | speed MPH | gust MPH | rain 1hr in | rain 24hr in | rain mn in | humidity % | barometer mb |
| 20260503040015 | 53 | 191 | 7.0 | 11.0 | 0.00 | 0.00 | 0.00 | 55 | 1011.6 |
| 20260503035015 | 53 | 156 | 7.0 | 10.0 | 0.00 | 0.00 | 0.00 | 54 | 1011.5 |
| 20260503034015 | 53 | 168 | 5.0 | 8.0 | 0.00 | 0.00 | 0.00 | 54 | 1011.6 |
| 20260503033015 | 53 | 199 | 5.0 | 8.0 | 0.00 | 0.00 | 0.00 | 57 | 1011.7 |
| 20260503032015 | 53 | 203 | 4.0 | 8.0 | 0.00 | 0.00 | 0.00 | 56 | 1011.9 |
| 20260503031015 | 53 | 210 | 3.0 | 7.0 | 0.00 | 0.00 | 0.00 | 55 | 1011.9 |
| 20260503030015 | 53 | 157 | 5.0 | 7.0 | 0.00 | 0.00 | 0.00 | 54 | 1012.0 |
| 20260503024055 | 53 | 171 | 4.0 | 6.0 | 0.00 | 0.00 | 0.00 | 54 | 1012.1 |
| 20260503023015 | 54 | 158 | 4.0 | 6.0 | 0.00 | 0.00 | 0.00 | 52 | 1012.2 |
| 20260503022015 | 54 | 172 | 4.0 | 6.0 | 0.00 | 0.00 | 0.00 | 53 | 1012.2 |
| 20260503021015 | 54 | 171 | 4.0 | 6.0 | 0.00 | 0.00 | 0.00 | 53 | 1012.3 |
| 20260503020015 | 54 | 158 | 4.0 | 5.0 | 0.00 | 0.00 | 0.00 | 52 | 1012.3 |
| 20260503015015 | 54 | 164 | 3.0 | 4.0 | 0.00 | 0.00 | 0.00 | 52 | 1012.4 |
| 20260503014015 | 54 | 162 | 4.0 | 6.0 | 0.00 | 0.00 | 0.00 | 53 | 1012.2 |
| 20260503013015 | 54 | 216 | 4.0 | 5.0 | 0.00 | 0.00 | 0.00 | 55 | 1012.2 |
| 20260503012015 | 55 | 226 | 4.0 | 7.0 | 0.00 | 0.00 | 0.00 | 54 | 1012.3 |
| 20260503011015 | 55 | 206 | 5.0 | 7.0 | 0.00 | 0.00 | 0.00 | 53 | 1012.2 |
| 20260503010015 | 55 | 228 | 3.0 | 6.0 | 0.00 | 0.00 | 0.00 | 55 | 1012.2 |
| 20260503005015 | 55 | 239 | 4.0 | 7.0 | 0.00 | 0.00 | 0.00 | 54 | 1012.3 |
| 20260503004015 | 55 | 258 | 2.0 | 5.0 | 0.00 | 0.00 | 0.00 | 53 | 1012.3 |
| 20260503003015 | 55 | 250 | 4.0 | 5.0 | 0.00 | 0.00 | 0.00 | 52 | 1012.4 |
| 20260503002135 | 56 | 270 | 1.0 | 7.0 | 0.00 | 0.00 | 0.00 | 50 | 1012.6 |
| 20260503001015 | 56 | 268 | 2.0 | 6.0 | 0.00 | 0.00 | 0.00 | 49 | 1012.6 |
| 20260502235014 | 57 | 267 | 2.0 | 9.0 | 0.00 | 0.00 | 0.00 | 47 | 1012.9 |
| 20260502234015 | 57 | 262 | 2.0 | 9.0 | 0.00 | 0.00 | 0.00 | 48 | 1012.7 |
| 20260502233015 | 58 | 269 | 2.0 | 6.0 | 0.00 | 0.00 | 0.00 | 45 | 1012.8 |
| 20260502232014 | 59 | 243 | 1.0 | 12.0 | 0.00 | 0.00 | 0.00 | 42 | 1012.9 |
| 20260502231055 | 59 | 271 | 3.0 | 12.0 | 0.00 | 0.00 | 0.00 | 42 | 1012.9 |
| 20260502230015 | 59 | 274 | 2.0 | 6.0 | 0.00 | 0.00 | 0.00 | 42 | 1013.0 |
| 20260502225015 | 59 | 273 | 3.0 | 10.0 | 0.00 | 0.00 | 0.00 | 43 | 1013.1 |
| 20260502224015 | 59 | 269 | 3.0 | 8.0 | 0.00 | 0.00 | 0.00 | 43 | 1013.2 |
| 20260502223014 | 58 | 275 | 1.0 | 4.0 | 0.00 | 0.00 | 0.00 | 42 | 1013.2 |
| 20260502222017 | 58 | 255 | 1.0 | 8.0 | 0.00 | 0.00 | 0.00 | 41 | 1013.2 |
| 20260502221056 | 59 | 265 | 3.0 | 14.0 | 0.00 | 0.00 | 0.00 | 41 | 1013.3 |
| 20260502220016 | 60 | 256 | 4.0 | 12.0 | 0.00 | 0.00 | 0.00 | 40 | 1013.4 |
| 20260502215016 | 60 | 255 | 2.0 | 8.0 | 0.00 | 0.00 | 0.00 | 38 | 1013.5 |
| 20260502214017 | 60 | 261 | 4.0 | 12.0 | 0.00 | 0.00 | 0.00 | 40 | 1013.7 |
| 20260502213016 | 60 | 269 | 2.0 | 11.0 | 0.00 | 0.00 | 0.00 | 38 | 1013.9 |
| 20260502212016 | 59 | 254 | 1.0 | 9.0 | 0.00 | 0.00 | 0.00 | 38 | 1013.8 |
| 20260502211056 | 59 | 224 | 4.0 | 12.0 | 0.00 | 0.00 | 0.00 | 36 | 1014.0 |
| 20260502210016 | 60 | 255 | 4.0 | 14.0 | 0.00 | 0.00 | 0.00 | 37 | 1014.0 |
| 20260502204016 | 60 | 256 | 5.0 | 15.0 | 0.00 | 0.00 | 0.00 | 38 | 1014.3 |
| 20260502203016 | 59 | 258 | 3.0 | 12.0 | 0.00 | 0.00 | 0.00 | 40 | 1014.4 |
| 20260502202056 | 60 | 235 | 3.0 | 9.0 | 0.00 | 0.00 | 0.00 | 36 | 1014.7 |
| 20260502201056 | 59 | 268 | 3.0 | 9.0 | 0.00 | 0.00 | 0.00 | 38 | 1014.8 |
| 20260502200016 | 59 | 192 | 7.0 | 12.0 | 0.00 | 0.00 | 0.00 | 37 | 1015.0 |
| 20260502195016 | 60 | 259 | 3.0 | 11.0 | 0.00 | 0.00 | 0.00 | 38 | 1015.2 |
| 20260502194016 | 59 | 258 | 3.0 | 10.0 | 0.00 | 0.00 | 0.00 | 39 | 1015.3 |
| 20260502193016 | 58 | 257 | 4.0 | 11.0 | 0.00 | 0.00 | 0.00 | 39 | 1015.3 |
| 20260502192016 | 58 | 220 | 4.0 | 10.0 | 0.00 | 0.00 | 0.00 | 39 | 1015.6 |
| 20260502191055 | 58 | 256 | 3.0 | 12.0 | 0.00 | 0.00 | 0.00 | 39 | 1015.7 |
| 20260502190015 | 57 | 223 | 6.0 | 13.0 | 0.00 | 0.00 | 0.00 | 37 | 1015.8 |
| 20260502185015 | 59 | 237 | 2.0 | 7.0 | 0.00 | 0.00 | 0.00 | 40 | 1016.0 |
| 20260502184015 | 58 | 251 | 2.0 | 9.0 | 0.00 | 0.00 | 0.00 | 41 | 1016.1 |
| 20260502183055 | 57 | 294 | 2.0 | 9.0 | 0.00 | 0.00 | 0.00 | 38 | 1016.1 |
| 20260502182015 | 58 | 244 | 5.0 | 10.0 | 0.00 | 0.00 | 0.00 | 39 | 1016.3 |
| 20260502181015 | 58 | 264 | 2.0 | 8.0 | 0.00 | 0.00 | 0.00 | 39 | 1016.5 |
| 20260502164055 | 55 | 265 | 1.0 | 10.0 | 0.00 | 0.00 | 0.00 | 40 | 1017.7 |
| 20260502163015 | 55 | 284 | 2.0 | 8.0 | 0.00 | 0.00 | 0.00 | 40 | 1017.8 |
| 20260502162015 | 54 | 277 | 2.0 | 7.0 | 0.00 | 0.00 | 0.00 | 42 | 1017.9 |
| 20260502161015 | 54 | 268 | 2.0 | 4.0 | 0.00 | 0.00 | 0.00 | 41 | 1018.0 |
| 20260502152015 | 51 | 257 | 2.0 | 7.0 | 0.00 | 0.00 | 0.00 | 49 | 1018.5 |
| 20260502151017 | 51 | 0.0 | 0.0 | 0.00 | 0.00 | 0.00 | 50 | 1018.4 | |
| 20260502150959 | 49 | 225 | 2.0 | 4.0 | 0.00 | 0.00 | 0.00 | 53 | 1018.6 |